sensor_id;sensor_type;location;lat;lon;timestamp;temperature;humidity
10233;DHT22;5161;48.174;11.756;2023-07-13T00:01:27;22.50;74.30
10233;DHT22;5161;48.174;11.756;2023-07-13T00:03:53;22.40;74.60
10233;DHT22;5161;48.174;11.756;2023-07-13T00:06:19;22.40;74.50
10233;DHT22;5161;48.174;11.756;2023-07-13T00:08:46;22.30;74.40
10233;DHT22;5161;48.174;11.756;2023-07-13T00:11:12;22.30;74.60
10233;DHT22;5161;48.174;11.756;2023-07-13T00:13:38;22.30;74.50
10233;DHT22;5161;48.174;11.756;2023-07-13T00:16:06;22.30;74.30
10233;DHT22;5161;48.174;11.756;2023-07-13T00:18:31;22.40;74.70
10233;DHT22;5161;48.174;11.756;2023-07-13T00:20:57;22.50;74.50
10233;DHT22;5161;48.174;11.756;2023-07-13T00:23:40;22.60;74.30
10233;DHT22;5161;48.174;11.756;2023-07-13T00:26:08;22.40;74.50
10233;DHT22;5161;48.174;11.756;2023-07-13T00:28:34;22.50;74.40
10233;DHT22;5161;48.174;11.756;2023-07-13T00:31:01;22.50;74.00
10233;DHT22;5161;48.174;11.756;2023-07-13T00:33:27;22.30;74.50
10233;DHT22;5161;48.174;11.756;2023-07-13T00:35:54;22.20;74.80
10233;DHT22;5161;48.174;11.756;2023-07-13T00:38:21;22.10;75.00
10233;DHT22;5161;48.174;11.756;2023-07-13T00:40:46;22.20;75.10
10233;DHT22;5161;48.174;11.756;2023-07-13T00:43:20;22.30;75.00
10233;DHT22;5161;48.174;11.756;2023-07-13T00:48:17;22.40;74.80
10233;DHT22;5161;48.174;11.756;2023-07-13T00:50:44;22.40;74.80
10233;DHT22;5161;48.174;11.756;2023-07-13T00:53:10;22.40;74.70
10233;DHT22;5161;48.174;11.756;2023-07-13T00:55:38;22.40;74.60
10233;DHT22;5161;48.174;11.756;2023-07-13T00:58:05;22.20;75.00
10233;DHT22;5161;48.174;11.756;2023-07-13T01:00:34;22.20;74.90
10233;DHT22;5161;48.174;11.756;2023-07-13T01:03:00;22.20;74.90
10233;DHT22;5161;48.174;11.756;2023-07-13T01:05:30;22.20;74.70
10233;DHT22;5161;48.174;11.756;2023-07-13T01:07:57;22.20;74.60
10233;DHT22;5161;48.174;11.756;2023-07-13T01:10:24;22.30;74.90
10233;DHT22;5161;48.174;11.756;2023-07-13T01:12:50;22.20;74.30
10233;DHT22;5161;48.174;11.756;2023-07-13T01:18:00;22.20;74.60
10233;DHT22;5161;48.174;11.756;2023-07-13T01:20:26;22.20;74.40
10233;DHT22;5161;48.174;11.756;2023-07-13T01:22:51;22.20;74.40
10233;DHT22;5161;48.174;11.756;2023-07-13T01:25:18;22.30;74.30
10233;DHT22;5161;48.174;11.756;2023-07-13T01:27:44;22.30;74.20
10233;DHT22;5161;48.174;11.756;2023-07-13T01:30:10;22.30;74.00
10233;DHT22;5161;48.174;11.756;2023-07-13T01:32:36;22.30;74.10
10233;DHT22;5161;48.174;11.756;2023-07-13T01:35:02;22.40;74.10
10233;DHT22;5161;48.174;11.756;2023-07-13T01:37:28;22.40;73.90
10233;DHT22;5161;48.174;11.756;2023-07-13T01:39:58;22.40;74.00
10233;DHT22;5161;48.174;11.756;2023-07-13T01:42:24;22.50;74.00
10233;DHT22;5161;48.174;11.756;2023-07-13T01:44:50;22.50;73.80
10233;DHT22;5161;48.174;11.756;2023-07-13T01:47:15;22.40;74.00
10233;DHT22;5161;48.174;11.756;2023-07-13T01:49:41;22.40;74.10
10233;DHT22;5161;48.174;11.756;2023-07-13T01:52:06;22.40;74.20
10233;DHT22;5161;48.174;11.756;2023-07-13T01:54:32;22.40;74.20
10233;DHT22;5161;48.174;11.756;2023-07-13T01:56:59;22.50;74.20
10233;DHT22;5161;48.174;11.756;2023-07-13T01:59:25;22.50;74.40
10233;DHT22;5161;48.174;11.756;2023-07-13T02:01:50;22.50;74.30
10233;DHT22;5161;48.174;11.756;2023-07-13T02:04:16;22.50;74.40
10233;DHT22;5161;48.174;11.756;2023-07-13T02:06:41;22.50;74.40
10233;DHT22;5161;48.174;11.756;2023-07-13T02:09:07;22.50;74.50
10233;DHT22;5161;48.174;11.756;2023-07-13T02:11:33;22.40;74.30
10233;DHT22;5161;48.174;11.756;2023-07-13T02:14:00;22.40;74.60
10233;DHT22;5161;48.174;11.756;2023-07-13T02:16:27;22.50;74.80
10233;DHT22;5161;48.174;11.756;2023-07-13T02:18:53;22.50;74.90
10233;DHT22;5161;48.174;11.756;2023-07-13T02:21:18;22.50;75.00
10233;DHT22;5161;48.174;11.756;2023-07-13T02:23:44;22.50;75.10
10233;DHT22;5161;48.174;11.756;2023-07-13T02:26:10;22.50;75.20
10233;DHT22;5161;48.174;11.756;2023-07-13T02:28:35;22.50;75.30
10233;DHT22;5161;48.174;11.756;2023-07-13T02:31:09;22.50;75.40
10233;DHT22;5161;48.174;11.756;2023-07-13T02:33:34;22.50;75.50
10233;DHT22;5161;48.174;11.756;2023-07-13T02:36:00;22.50;75.50
10233;DHT22;5161;48.174;11.756;2023-07-13T02:38:25;22.50;75.60
10233;DHT22;5161;48.174;11.756;2023-07-13T02:40:51;22.50;75.70
10233;DHT22;5161;48.174;11.756;2023-07-13T02:43:17;22.50;75.80
10233;DHT22;5161;48.174;11.756;2023-07-13T02:45:46;22.50;75.70
10233;DHT22;5161;48.174;11.756;2023-07-13T02:48:13;22.50;75.90
10233;DHT22;5161;48.174;11.756;2023-07-13T02:50:39;22.50;75.80
10233;DHT22;5161;48.174;11.756;2023-07-13T02:53:04;22.40;75.70
10233;DHT22;5161;48.174;11.756;2023-07-13T02:55:30;22.40;75.80
10233;DHT22;5161;48.174;11.756;2023-07-13T02:57:55;22.40;76.00
10233;DHT22;5161;48.174;11.756;2023-07-13T03:00:22;22.40;76.00
10233;DHT22;5161;48.174;11.756;2023-07-13T03:02:48;22.40;76.10
10233;DHT22;5161;48.174;11.756;2023-07-13T03:05:14;22.40;76.30
10233;DHT22;5161;48.174;11.756;2023-07-13T03:07:40;22.20;76.90
10233;DHT22;5161;48.174;11.756;2023-07-13T03:10:06;21.90;76.90
10233;DHT22;5161;48.174;11.756;2023-07-13T03:12:32;21.80;77.10
10233;DHT22;5161;48.174;11.756;2023-07-13T03:14:58;21.90;77.00
10233;DHT22;5161;48.174;11.756;2023-07-13T03:17:23;22.10;76.80
10233;DHT22;5161;48.174;11.756;2023-07-13T03:19:49;22.10;76.10
10233;DHT22;5161;48.174;11.756;2023-07-13T03:22:17;21.90;76.30
10233;DHT22;5161;48.174;11.756;2023-07-13T03:24:42;21.90;76.80
10233;DHT22;5161;48.174;11.756;2023-07-13T03:27:08;21.90;76.70
10233;DHT22;5161;48.174;11.756;2023-07-13T03:29:34;21.90;76.30
10233;DHT22;5161;48.174;11.756;2023-07-13T03:31:59;21.90;76.60
10233;DHT22;5161;48.174;11.756;2023-07-13T03:34:25;21.90;76.30
10233;DHT22;5161;48.174;11.756;2023-07-13T03:36:53;21.90;76.30
10233;DHT22;5161;48.174;11.756;2023-07-13T03:39:19;22.00;76.10
10233;DHT22;5161;48.174;11.756;2023-07-13T03:41:44;22.00;75.90
10233;DHT22;5161;48.174;11.756;2023-07-13T03:44:10;22.00;75.90
10233;DHT22;5161;48.174;11.756;2023-07-13T03:46:36;21.90;75.70
10233;DHT22;5161;48.174;11.756;2023-07-13T03:49:03;22.00;75.90
10233;DHT22;5161;48.174;11.756;2023-07-13T03:51:29;22.00;75.80
10233;DHT22;5161;48.174;11.756;2023-07-13T03:53:54;22.00;75.70
10233;DHT22;5161;48.174;11.756;2023-07-13T03:56:20;22.00;75.80
10233;DHT22;5161;48.174;11.756;2023-07-13T03:58:47;22.00;75.70
10233;DHT22;5161;48.174;11.756;2023-07-13T04:01:14;22.00;75.40
10233;DHT22;5161;48.174;11.756;2023-07-13T04:03:41;21.90;75.70
10233;DHT22;5161;48.174;11.756;2023-07-13T04:06:08;21.90;75.60
10233;DHT22;5161;48.174;11.756;2023-07-13T04:08:40;21.90;75.50
10233;DHT22;5161;48.174;11.756;2023-07-13T04:11:06;21.80;75.80
10233;DHT22;5161;48.174;11.756;2023-07-13T04:13:32;21.80;75.80
10233;DHT22;5161;48.174;11.756;2023-07-13T04:15:58;21.80;75.80
10233;DHT22;5161;48.174;11.756;2023-07-13T04:18:24;21.80;75.90
10233;DHT22;5161;48.174;11.756;2023-07-13T04:20:50;21.80;75.80
10233;DHT22;5161;48.174;11.756;2023-07-13T04:23:17;21.90;75.70
10233;DHT22;5161;48.174;11.756;2023-07-13T04:25:49;21.90;75.50
10233;DHT22;5161;48.174;11.756;2023-07-13T04:28:20;21.80;75.20
10233;DHT22;5161;48.174;11.756;2023-07-13T04:30:46;21.60;74.80
10233;DHT22;5161;48.174;11.756;2023-07-13T04:33:12;21.50;75.40
10233;DHT22;5161;48.174;11.756;2023-07-13T04:35:37;21.60;75.30
10233;DHT22;5161;48.174;11.756;2023-07-13T04:38:03;21.70;75.20
10233;DHT22;5161;48.174;11.756;2023-07-13T04:40:29;21.70;75.10
10233;DHT22;5161;48.174;11.756;2023-07-13T04:42:55;21.60;74.60
10233;DHT22;5161;48.174;11.756;2023-07-13T04:45:22;21.60;75.30
10233;DHT22;5161;48.174;11.756;2023-07-13T04:47:49;21.50;74.90
10233;DHT22;5161;48.174;11.756;2023-07-13T04:50:15;21.40;74.50
10233;DHT22;5161;48.174;11.756;2023-07-13T04:52:45;21.40;75.10
10233;DHT22;5161;48.174;11.756;2023-07-13T04:55:11;21.50;75.10
10233;DHT22;5161;48.174;11.756;2023-07-13T04:57:36;21.50;75.10
10233;DHT22;5161;48.174;11.756;2023-07-13T05:00:03;21.60;75.10
10233;DHT22;5161;48.174;11.756;2023-07-13T05:02:30;21.60;75.00
10233;DHT22;5161;48.174;11.756;2023-07-13T05:04:57;21.60;74.70
10233;DHT22;5161;48.174;11.756;2023-07-13T05:07:22;21.50;75.20
10233;DHT22;5161;48.174;11.756;2023-07-13T05:09:48;21.50;75.20
10233;DHT22;5161;48.174;11.756;2023-07-13T05:12:13;21.60;75.30
10233;DHT22;5161;48.174;11.756;2023-07-13T05:14:39;21.60;75.40
10233;DHT22;5161;48.174;11.756;2023-07-13T05:17:05;21.60;75.40
10233;DHT22;5161;48.174;11.756;2023-07-13T05:19:30;21.60;75.60
10233;DHT22;5161;48.174;11.756;2023-07-13T05:21:56;21.60;75.40
10233;DHT22;5161;48.174;11.756;2023-07-13T05:24:21;21.60;75.40
10233;DHT22;5161;48.174;11.756;2023-07-13T05:26:47;21.60;75.50
10233;DHT22;5161;48.174;11.756;2023-07-13T05:29:12;21.60;75.40
10233;DHT22;5161;48.174;11.756;2023-07-13T05:31:38;21.50;75.20
10233;DHT22;5161;48.174;11.756;2023-07-13T05:34:04;21.50;75.60
10233;DHT22;5161;48.174;11.756;2023-07-13T05:36:30;21.50;75.60
10233;DHT22;5161;48.174;11.756;2023-07-13T05:38:55;21.60;75.70
10233;DHT22;5161;48.174;11.756;2023-07-13T05:41:21;21.60;75.50
10233;DHT22;5161;48.174;11.756;2023-07-13T05:43:46;21.60;75.40
10233;DHT22;5161;48.174;11.756;2023-07-13T05:46:12;21.70;75.50
10233;DHT22;5161;48.174;11.756;2023-07-13T05:48:37;21.60;75.40
10233;DHT22;5161;48.174;11.756;2023-07-13T05:51:03;21.60;75.60
10233;DHT22;5161;48.174;11.756;2023-07-13T05:53:28;21.60;75.40
10233;DHT22;5161;48.174;11.756;2023-07-13T05:55:55;21.60;75.20
10233;DHT22;5161;48.174;11.756;2023-07-13T05:58:21;21.50;74.60
10233;DHT22;5161;48.174;11.756;2023-07-13T06:00:47;21.50;75.40
10233;DHT22;5161;48.174;11.756;2023-07-13T06:03:13;21.60;75.20
10233;DHT22;5161;48.174;11.756;2023-07-13T06:05:39;21.60;75.20
10233;DHT22;5161;48.174;11.756;2023-07-13T06:08:06;21.60;75.10
10233;DHT22;5161;48.174;11.756;2023-07-13T06:10:35;21.60;75.00
10233;DHT22;5161;48.174;11.756;2023-07-13T06:13:01;21.60;74.90
10233;DHT22;5161;48.174;11.756;2023-07-13T06:15:27;21.60;75.10
10233;DHT22;5161;48.174;11.756;2023-07-13T06:17:52;21.70;75.00
10233;DHT22;5161;48.174;11.756;2023-07-13T06:20:18;21.70;75.00
10233;DHT22;5161;48.174;11.756;2023-07-13T06:22:43;21.70;74.70
10233;DHT22;5161;48.174;11.756;2023-07-13T06:25:09;21.70;74.90
10233;DHT22;5161;48.174;11.756;2023-07-13T06:27:34;21.60;75.30
10233;DHT22;5161;48.174;11.756;2023-07-13T06:30:00;21.70;75.20
10233;DHT22;5161;48.174;11.756;2023-07-13T06:32:26;21.70;75.10
10233;DHT22;5161;48.174;11.756;2023-07-13T06:34:52;21.80;75.20
10233;DHT22;5161;48.174;11.756;2023-07-13T06:37:18;21.80;75.00
10233;DHT22;5161;48.174;11.756;2023-07-13T06:39:43;21.80;75.00
10233;DHT22;5161;48.174;11.756;2023-07-13T06:42:09;21.60;75.00
10233;DHT22;5161;48.174;11.756;2023-07-13T06:44:35;21.50;75.10
10233;DHT22;5161;48.174;11.756;2023-07-13T06:47:01;21.40;74.60
10233;DHT22;5161;48.174;11.756;2023-07-13T06:49:26;21.30;75.10
10233;DHT22;5161;48.174;11.756;2023-07-13T06:51:52;21.20;75.30
10233;DHT22;5161;48.174;11.756;2023-07-13T06:54:17;21.20;75.60
10233;DHT22;5161;48.174;11.756;2023-07-13T06:57:11;21.20;74.90
10233;DHT22;5161;48.174;11.756;2023-07-13T06:59:55;21.30;75.10
10233;DHT22;5161;48.174;11.756;2023-07-13T07:02:20;21.20;75.00
10233;DHT22;5161;48.174;11.756;2023-07-13T07:04:49;21.30;74.60
10233;DHT22;5161;48.174;11.756;2023-07-13T07:07:18;21.30;74.30
10233;DHT22;5161;48.174;11.756;2023-07-13T07:09:57;21.30;73.80
10233;DHT22;5161;48.174;11.756;2023-07-13T07:12:22;21.40;74.00
10233;DHT22;5161;48.174;11.756;2023-07-13T07:14:51;21.50;73.40
10233;DHT22;5161;48.174;11.756;2023-07-13T07:17:17;21.60;73.70
10233;DHT22;5161;48.174;11.756;2023-07-13T07:19:42;21.70;73.50
10233;DHT22;5161;48.174;11.756;2023-07-13T07:22:08;21.60;72.60
10233;DHT22;5161;48.174;11.756;2023-07-13T07:24:42;21.70;73.50
10233;DHT22;5161;48.174;11.756;2023-07-13T07:27:07;21.80;73.30
10233;DHT22;5161;48.174;11.756;2023-07-13T07:29:33;21.70;72.60
10233;DHT22;5161;48.174;11.756;2023-07-13T07:32:02;21.80;72.30
10233;DHT22;5161;48.174;11.756;2023-07-13T07:34:27;21.70;72.10
10233;DHT22;5161;48.174;11.756;2023-07-13T07:36:54;21.70;71.00
10233;DHT22;5161;48.174;11.756;2023-07-13T07:39:19;21.60;71.60
10233;DHT22;5161;48.174;11.756;2023-07-13T07:41:45;21.60;71.50
10233;DHT22;5161;48.174;11.756;2023-07-13T07:44:11;21.70;71.10
10233;DHT22;5161;48.174;11.756;2023-07-13T07:46:36;21.70;69.70
10233;DHT22;5161;48.174;11.756;2023-07-13T07:49:02;21.60;69.90
10233;DHT22;5161;48.174;11.756;2023-07-13T07:51:28;21.60;70.10
10233;DHT22;5161;48.174;11.756;2023-07-13T07:53:54;21.70;70.50
10233;DHT22;5161;48.174;11.756;2023-07-13T07:56:19;21.70;69.80
10233;DHT22;5161;48.174;11.756;2023-07-13T07:58:45;21.80;69.90
10233;DHT22;5161;48.174;11.756;2023-07-13T08:01:11;21.70;69.50
10233;DHT22;5161;48.174;11.756;2023-07-13T08:03:42;21.80;69.30
10233;DHT22;5161;48.174;11.756;2023-07-13T08:06:11;21.80;68.80
10233;DHT22;5161;48.174;11.756;2023-07-13T08:08:37;21.80;68.50
10233;DHT22;5161;48.174;11.756;2023-07-13T08:11:07;21.70;68.00
10233;DHT22;5161;48.174;11.756;2023-07-13T08:13:33;21.70;67.20
10233;DHT22;5161;48.174;11.756;2023-07-13T08:15:59;21.60;65.20
10233;DHT22;5161;48.174;11.756;2023-07-13T08:18:25;21.60;67.30
10233;DHT22;5161;48.174;11.756;2023-07-13T08:20:53;21.60;67.00
10233;DHT22;5161;48.174;11.756;2023-07-13T08:23:21;21.60;67.10
10233;DHT22;5161;48.174;11.756;2023-07-13T08:25:51;21.70;66.20
10233;DHT22;5161;48.174;11.756;2023-07-13T08:28:17;21.70;67.00
10233;DHT22;5161;48.174;11.756;2023-07-13T08:30:42;21.70;65.90
10233;DHT22;5161;48.174;11.756;2023-07-13T08:33:08;21.60;67.10
10233;DHT22;5161;48.174;11.756;2023-07-13T08:35:34;21.60;66.40
10233;DHT22;5161;48.174;11.756;2023-07-13T08:37:59;21.70;66.60
10233;DHT22;5161;48.174;11.756;2023-07-13T08:40:27;21.70;66.40
10233;DHT22;5161;48.174;11.756;2023-07-13T08:43:00;21.70;66.70
10233;DHT22;5161;48.174;11.756;2023-07-13T08:45:43;21.70;66.50
10233;DHT22;5161;48.174;11.756;2023-07-13T08:48:16;21.70;66.60
10233;DHT22;5161;48.174;11.756;2023-07-13T08:50:54;21.60;67.00
10233;DHT22;5161;48.174;11.756;2023-07-13T08:53:23;21.70;67.20
10233;DHT22;5161;48.174;11.756;2023-07-13T08:55:53;21.70;67.00
10233;DHT22;5161;48.174;11.756;2023-07-13T08:58:25;21.70;67.20
10233;DHT22;5161;48.174;11.756;2023-07-13T09:10:43;21.80;66.70
10233;DHT22;5161;48.174;11.756;2023-07-13T09:13:37;21.70;63.90
10233;DHT22;5161;48.174;11.756;2023-07-13T09:16:18;21.70;64.80
10233;DHT22;5161;48.174;11.756;2023-07-13T09:19:02;21.70;63.50
10233;DHT22;5161;48.174;11.756;2023-07-13T09:21:39;21.70;63.30
10233;DHT22;5161;48.174;11.756;2023-07-13T09:24:26;21.70;61.40
10233;DHT22;5161;48.174;11.756;2023-07-13T09:26:54;21.60;62.30
10233;DHT22;5161;48.174;11.756;2023-07-13T09:29:31;21.70;61.30
10233;DHT22;5161;48.174;11.756;2023-07-13T09:32:02;21.70;61.70
10233;DHT22;5161;48.174;11.756;2023-07-13T09:35:07;21.70;61.10
10233;DHT22;5161;48.174;11.756;2023-07-13T09:37:45;21.70;61.20
10233;DHT22;5161;48.174;11.756;2023-07-13T09:43:37;21.80;61.60
10233;DHT22;5161;48.174;11.756;2023-07-13T09:46:02;21.80;61.00
10233;DHT22;5161;48.174;11.756;2023-07-13T09:48:34;21.90;61.00
10233;DHT22;5161;48.174;11.756;2023-07-13T09:51:12;21.90;60.50
10233;DHT22;5161;48.174;11.756;2023-07-13T09:53:41;21.90;60.60
10233;DHT22;5161;48.174;11.756;2023-07-13T09:56:20;21.90;59.80
10233;DHT22;5161;48.174;11.756;2023-07-13T09:58:45;21.90;59.70
10233;DHT22;5161;48.174;11.756;2023-07-13T10:01:11;21.90;59.70
10233;DHT22;5161;48.174;11.756;2023-07-13T10:03:38;22.00;59.50
10233;DHT22;5161;48.174;11.756;2023-07-13T10:06:16;22.00;59.40
10233;DHT22;5161;48.174;11.756;2023-07-13T10:08:44;22.00;59.20
10233;DHT22;5161;48.174;11.756;2023-07-13T10:11:22;22.00;57.20
10233;DHT22;5161;48.174;11.756;2023-07-13T10:13:59;21.90;58.40
10233;DHT22;5161;48.174;11.756;2023-07-13T10:16:35;22.00;58.40
10233;DHT22;5161;48.174;11.756;2023-07-13T10:19:24;22.00;57.80
10233;DHT22;5161;48.174;11.756;2023-07-13T10:21:56;22.00;57.70
10233;DHT22;5161;48.174;11.756;2023-07-13T10:24:27;22.00;57.60
10233;DHT22;5161;48.174;11.756;2023-07-13T10:27:05;22.00;56.60
10233;DHT22;5161;48.174;11.756;2023-07-13T10:29:43;22.10;57.40
10233;DHT22;5161;48.174;11.756;2023-07-13T10:32:12;22.10;56.90
10233;DHT22;5161;48.174;11.756;2023-07-13T10:34:43;22.20;57.50
10233;DHT22;5161;48.174;11.756;2023-07-13T10:37:20;22.30;57.40
10233;DHT22;5161;48.174;11.756;2023-07-13T10:39:48;22.30;57.10
10233;DHT22;5161;48.174;11.756;2023-07-13T10:42:25;22.40;57.60
10233;DHT22;5161;48.174;11.756;2023-07-13T10:44:52;22.50;57.50
10233;DHT22;5161;48.174;11.756;2023-07-13T10:47:18;22.60;57.80
10233;DHT22;5161;48.174;11.756;2023-07-13T10:49:44;22.60;56.70
10233;DHT22;5161;48.174;11.756;2023-07-13T10:52:49;22.60;57.10
10233;DHT22;5161;48.174;11.756;2023-07-13T10:55:38;22.60;55.60
10233;DHT22;5161;48.174;11.756;2023-07-13T10:58:20;22.70;56.30
10233;DHT22;5161;48.174;11.756;2023-07-13T11:01:08;22.70;56.50
10233;DHT22;5161;48.174;11.756;2023-07-13T11:03:49;22.80;57.10
10233;DHT22;5161;48.174;11.756;2023-07-13T11:06:37;22.80;56.20
10233;DHT22;5161;48.174;11.756;2023-07-13T11:09:30;22.90;55.90
10233;DHT22;5161;48.174;11.756;2023-07-13T11:12:06;22.90;55.90
10233;DHT22;5161;48.174;11.756;2023-07-13T11:14:39;22.80;55.60
10233;DHT22;5161;48.174;11.756;2023-07-13T11:19:52;22.80;55.20
10233;DHT22;5161;48.174;11.756;2023-07-13T11:22:26;22.80;55.70
10233;DHT22;5161;48.174;11.756;2023-07-13T11:25:27;22.70;56.20
10233;DHT22;5161;48.174;11.756;2023-07-13T11:36:10;22.80;55.30
10233;DHT22;5161;48.174;11.756;2023-07-13T11:38:55;22.60;55.30
10233;DHT22;5161;48.174;11.756;2023-07-13T11:41:37;22.60;55.60
10233;DHT22;5161;48.174;11.756;2023-07-13T11:44:23;22.70;55.20
10233;DHT22;5161;48.174;11.756;2023-07-13T11:46:54;22.70;55.90
10233;DHT22;5161;48.174;11.756;2023-07-13T11:49:22;22.90;56.30
10233;DHT22;5161;48.174;11.756;2023-07-13T11:51:48;22.80;55.50
10233;DHT22;5161;48.174;11.756;2023-07-13T11:54:29;22.90;55.50
10233;DHT22;5161;48.174;11.756;2023-07-13T11:56:58;23.00;55.80
10233;DHT22;5161;48.174;11.756;2023-07-13T11:59:26;23.10;55.40
10233;DHT22;5161;48.174;11.756;2023-07-13T12:01:53;23.10;55.50
10233;DHT22;5161;48.174;11.756;2023-07-13T12:04:29;23.10;54.80
10233;DHT22;5161;48.174;11.756;2023-07-13T12:07:16;23.00;54.00
10233;DHT22;5161;48.174;11.756;2023-07-13T12:09:43;23.10;55.20
10233;DHT22;5161;48.174;11.756;2023-07-13T12:12:13;23.10;54.10
10233;DHT22;5161;48.174;11.756;2023-07-13T12:14:40;23.10;54.70
10233;DHT22;5161;48.174;11.756;2023-07-13T12:17:19;23.10;54.20
10233;DHT22;5161;48.174;11.756;2023-07-13T12:19:45;23.10;54.20
10233;DHT22;5161;48.174;11.756;2023-07-13T12:22:13;23.10;55.10
10233;DHT22;5161;48.174;11.756;2023-07-13T12:24:40;23.20;52.90
10233;DHT22;5161;48.174;11.756;2023-07-13T12:27:19;23.20;54.70
10233;DHT22;5161;48.174;11.756;2023-07-13T12:30:00;23.30;53.80
10233;DHT22;5161;48.174;11.756;2023-07-13T12:32:27;23.30;53.60
10233;DHT22;5161;48.174;11.756;2023-07-13T12:34:54;23.40;54.80
10233;DHT22;5161;48.174;11.756;2023-07-13T12:37:21;23.50;54.90
10233;DHT22;5161;48.174;11.756;2023-07-13T12:39:48;23.50;54.90
10233;DHT22;5161;48.174;11.756;2023-07-13T12:42:28;23.60;54.60
10233;DHT22;5161;48.174;11.756;2023-07-13T12:45:01;23.60;54.50
10233;DHT22;5161;48.174;11.756;2023-07-13T12:47:28;23.60;54.30
10233;DHT22;5161;48.174;11.756;2023-07-13T12:49:58;23.60;54.10
10233;DHT22;5161;48.174;11.756;2023-07-13T12:55:06;23.60;54.50
10233;DHT22;5161;48.174;11.756;2023-07-13T12:57:40;23.70;54.80
10233;DHT22;5161;48.174;11.756;2023-07-13T13:02:45;23.70;54.10
10233;DHT22;5161;48.174;11.756;2023-07-13T13:05:13;23.70;55.20
10233;DHT22;5161;48.174;11.756;2023-07-13T13:07:39;23.70;54.80
10233;DHT22;5161;48.174;11.756;2023-07-13T13:10:12;23.70;54.90
10233;DHT22;5161;48.174;11.756;2023-07-13T13:12:37;23.70;54.80
10233;DHT22;5161;48.174;11.756;2023-07-13T13:15:03;23.70;54.50
10233;DHT22;5161;48.174;11.756;2023-07-13T13:17:32;23.60;54.30
10233;DHT22;5161;48.174;11.756;2023-07-13T13:19:58;23.60;54.50
10233;DHT22;5161;48.174;11.756;2023-07-13T13:22:24;23.60;54.80
10233;DHT22;5161;48.174;11.756;2023-07-13T13:24:50;23.50;54.30
10233;DHT22;5161;48.174;11.756;2023-07-13T13:27:18;23.50;55.10
10233;DHT22;5161;48.174;11.756;2023-07-13T13:29:45;23.60;54.60
10233;DHT22;5161;48.174;11.756;2023-07-13T13:32:14;23.70;54.50
10233;DHT22;5161;48.174;11.756;2023-07-13T13:34:41;23.70;53.70
10233;DHT22;5161;48.174;11.756;2023-07-13T13:37:22;23.80;54.60
10233;DHT22;5161;48.174;11.756;2023-07-13T13:39:48;23.90;54.20
10233;DHT22;5161;48.174;11.756;2023-07-13T13:42:14;23.90;54.40
10233;DHT22;5161;48.174;11.756;2023-07-13T13:44:40;23.90;53.60
10233;DHT22;5161;48.174;11.756;2023-07-13T13:49:52;23.70;52.70
10233;DHT22;5161;48.174;11.756;2023-07-13T13:52:17;23.70;52.60
10233;DHT22;5161;48.174;11.756;2023-07-13T13:54:43;23.80;53.20
10233;DHT22;5161;48.174;11.756;2023-07-13T13:57:10;23.90;53.30
10233;DHT22;5161;48.174;11.756;2023-07-13T13:59:38;23.80;52.00
10233;DHT22;5161;48.174;11.756;2023-07-13T14:02:22;23.90;53.20
10233;DHT22;5161;48.174;11.756;2023-07-13T14:04:55;23.90;52.20
10233;DHT22;5161;48.174;11.756;2023-07-13T14:07:21;23.90;52.60
10233;DHT22;5161;48.174;11.756;2023-07-13T14:09:47;23.90;53.00
10233;DHT22;5161;48.174;11.756;2023-07-13T14:12:13;24.00;52.90
10233;DHT22;5161;48.174;11.756;2023-07-13T14:14:39;24.00;52.60
10233;DHT22;5161;48.174;11.756;2023-07-13T14:17:24;23.90;52.70
10233;DHT22;5161;48.174;11.756;2023-07-13T14:19:51;23.90;51.90
10233;DHT22;5161;48.174;11.756;2023-07-13T14:22:20;23.90;52.50
10233;DHT22;5161;48.174;11.756;2023-07-13T14:24:46;24.00;52.80
10233;DHT22;5161;48.174;11.756;2023-07-13T14:27:12;24.00;52.30
10233;DHT22;5161;48.174;11.756;2023-07-13T14:29:38;24.00;52.20
10233;DHT22;5161;48.174;11.756;2023-07-13T14:32:04;24.00;52.60
10233;DHT22;5161;48.174;11.756;2023-07-13T14:34:31;24.10;52.70
10233;DHT22;5161;48.174;11.756;2023-07-13T14:36:57;24.10;51.90
10233;DHT22;5161;48.174;11.756;2023-07-13T14:39:24;24.10;52.00
10233;DHT22;5161;48.174;11.756;2023-07-13T14:41:52;24.10;52.40
10233;DHT22;5161;48.174;11.756;2023-07-13T14:44:26;24.10;51.80
10233;DHT22;5161;48.174;11.756;2023-07-13T14:46:54;24.10;51.10
10233;DHT22;5161;48.174;11.756;2023-07-13T14:52:03;24.00;52.20
10233;DHT22;5161;48.174;11.756;2023-07-13T14:54:31;24.00;51.90
10233;DHT22;5161;48.174;11.756;2023-07-13T14:56:56;24.10;52.00
10233;DHT22;5161;48.174;11.756;2023-07-13T14:59:25;24.10;52.20
10233;DHT22;5161;48.174;11.756;2023-07-13T15:01:51;24.20;52.00
10233;DHT22;5161;48.174;11.756;2023-07-13T15:04:17;24.30;52.60
10233;DHT22;5161;48.174;11.756;2023-07-13T15:07:01;24.40;51.80
10233;DHT22;5161;48.174;11.756;2023-07-13T15:09:28;24.30;51.60
10233;DHT22;5161;48.174;11.756;2023-07-13T15:11:58;24.30;51.90
10233;DHT22;5161;48.174;11.756;2023-07-13T15:14:24;24.30;51.70
10233;DHT22;5161;48.174;11.756;2023-07-13T15:16:53;24.10;51.90
10233;DHT22;5161;48.174;11.756;2023-07-13T15:19:19;24.10;52.30
10233;DHT22;5161;48.174;11.756;2023-07-13T15:21:47;24.20;52.40
10233;DHT22;5161;48.174;11.756;2023-07-13T15:24:14;24.30;52.60
10233;DHT22;5161;48.174;11.756;2023-07-13T15:26:41;24.50;52.60
10233;DHT22;5161;48.174;11.756;2023-07-13T15:29:11;24.60;51.80
10233;DHT22;5161;48.174;11.756;2023-07-13T15:31:36;24.60;52.30
10233;DHT22;5161;48.174;11.756;2023-07-13T15:34:14;24.60;52.20
10233;DHT22;5161;48.174;11.756;2023-07-13T15:36:41;24.60;51.70
10233;DHT22;5161;48.174;11.756;2023-07-13T15:39:13;24.60;51.60
10233;DHT22;5161;48.174;11.756;2023-07-13T15:41:40;24.50;51.70
10233;DHT22;5161;48.174;11.756;2023-07-13T15:44:22;24.50;52.20
10233;DHT22;5161;48.174;11.756;2023-07-13T15:46:52;24.60;52.30
10233;DHT22;5161;48.174;11.756;2023-07-13T15:49:18;24.60;52.10
10233;DHT22;5161;48.174;11.756;2023-07-13T15:51:43;24.60;52.40
10233;DHT22;5161;48.174;11.756;2023-07-13T15:54:13;24.80;52.60
10233;DHT22;5161;48.174;11.756;2023-07-13T15:56:42;24.90;52.40
10233;DHT22;5161;48.174;11.756;2023-07-13T15:59:11;24.90;51.90
10233;DHT22;5161;48.174;11.756;2023-07-13T16:01:40;24.80;51.90
10233;DHT22;5161;48.174;11.756;2023-07-13T16:04:07;24.60;51.40
10233;DHT22;5161;48.174;11.756;2023-07-13T16:06:36;24.50;52.10
10233;DHT22;5161;48.174;11.756;2023-07-13T16:09:05;24.60;52.00
10233;DHT22;5161;48.174;11.756;2023-07-13T16:11:37;24.70;52.30
10233;DHT22;5161;48.174;11.756;2023-07-13T16:14:06;24.80;52.20
10233;DHT22;5161;48.174;11.756;2023-07-13T16:16:34;24.90;52.30
10233;DHT22;5161;48.174;11.756;2023-07-13T16:19:04;24.90;52.30
10233;DHT22;5161;48.174;11.756;2023-07-13T16:21:33;25.00;51.20